Portada
METAR-TAF:

METAR-TAF

Aeropuertos :

Aeropuerto de Bilbao

Bilbao, España

latitud: 43-18N, longitud: 002-56W, altitud: 42 m

Observación

El informe se hizo hace 32 minutos, a las 19:00 UTC
Viento 4 kt del este-sureste
Temperatura 18°C
Humedad 88%
Presión 1015 hPa
Visibilidad 10 km o más
Nubes dispersas a una altura de 6700 ft

METAR: LEBB 201900Z 12004KT 9999 SCT067 18/16 Q1015 NOSIG

Hora: 21:32 (19:32 UTC)

Pronóstico

El informe se hizo hace 2 horas y 32 minutos, a las 17:00 UTC
Pronóstico válido del 20 a las 18 UTC al 21 a las 18 UTC
Viento 8 kt del oeste-noroeste
Visibilidad 10 km o más
Escasas nubes a una altura de 4000 ft
Probabilidad 40% :
Temporalmente
del 20 a las 22 UTC al 21 a las 06 UTC
Viento 15 kt del noroeste con ráfagas de 25 kt
Visibilidad: 3000 m
Cielo nuboso a una altura de 1000 ft
lluvia

TAF: LEBB 201700Z 2018/2118 29008KT 9999 FEW040 TX19/2112Z TN15/2118Z PROB40 TEMPO 2022/2106 32015G25KT 3000 RA BKN010

Observaciones y pronósticos meteorológicos de más de 4000 aeropuertos (mensajes METAR y TAF).

Los puntos amarillos y rojos representan las estaciones disponibles.

Ponga el ratón en el punto deseado para ver el nombre de la estación.

Haga clic para ver las observaciones y los pronósticos meteorológicos.

Para cambiar el mapa : haga clic en los botones verdes con una cruz de color negro para hacer un zoom, en el botón verde con un guión para alejar o en las flechas verdes para mapas adyacentes.


METAR-TAF: